Startpagina
METAR-TAF:

METAR-TAF

Vliegvelden :

Nawabshah, Pakistan

breedte: 26-15N, lengte: 068-22E, hoogte: 37 m

Actueel weer

Dit bericht is 47 minuten geleden gemaakt, om 17:00 UTC
Wind 4 kt uit het zuiden
Temperatuur 22°C
Vochtigheid 50%
Druk 1015 hPa
rook

METAR: OPNH 161700Z 18004KT 4000M FU NSC 22/11 Q1015 NOSIG

Tijdstip: 22:47 (17:47 UTC)

Verwachting

Dit bericht is 2 uur en het 17 minuten geleden gemaakt, om 15:30 UTC
Verwachting geldig van 16 om 18 UTC tot 17 om 03 UTC
Wind 5 kt uit het zuidzuidwesten
Zicht: 2000 m
Weinig wolken op 3000 ft
rook
Tijdelijke
van 16 om 23 UTC tot 17 om 03 UTC
Wind 3 kt uit variabele richting
Zicht: 1000 m
nevel

TAF: OPNH 161530Z 1618/1703 21005KT 2000 FU FEW030 TEMPO 1623/1703 VRB03KT 1000 BR NSC

Waarnemingen en weersverwachtingen van meer dan 4000 vliegvelden (METAR en TAF).

De beschikbare stations zijn de gele en rode punten op de kaart.

Ga met uw muis naar het station om de naam te zien.

Klik dan om waarnemingen en weersverwachtingen te zien.

kaart wijzigen: klik op de groene knoppen met een zwart kruis om in te zoomen, op de groene knop met een streepje om uit te zoomen of op de groene pijlen voor aangrenzende kaarten.


METAR-TAF: